Time;durP1;ratioP1;P1;durP2;ratioP2;P2;SDS_P1;SDS_P2;PMS_P1;PMS_P2;Temp;Humidity;BMP_temperature;BMP_pressure;BME280_temperature;BME280_humidity;BME280_pressure;Samples;Min_cycle;Max_cycle;Signal;HPM_P1;HPM_P2
2023/03/02 00:01:03;;;;;;;;;;;16.80;36.40;;;;;;5092634;28;20339;-70
2023/03/02 00:03:31;;;;;;;;;;;16.70;37.20;;;;;;5092511;28;20349;-70
2023/03/02 00:05:57;;;;;;;;;;;16.70;36.50;;;;;;5092488;28;20375;-69
2023/03/02 00:08:26;;;;;;;;;;;16.70;36.50;;;;;;5092378;28;19974;-70
2023/03/02 00:10:53;;;;;;;;;;;16.60;36.60;;;;;;5091430;28;19920;-70
2023/03/02 00:13:19;;;;;;;;;;;16.60;36.60;;;;;;5092979;28;20428;-70
2023/03/02 00:15:45;;;;;;;;;;;16.60;36.60;;;;;;5093311;28;19919;-70
2023/03/02 00:18:10;;;;;;;;;;;16.60;36.70;;;;;;5092322;28;19939;-70
2023/03/02 00:20:36;;;;;;;;;;;16.60;36.70;;;;;;5093306;28;19927;-70
2023/03/02 00:23:01;;;;;;;;;;;16.60;36.70;;;;;;5092630;28;19927;-70
2023/03/02 00:25:27;;;;;;;;;;;16.60;36.70;;;;;;5092149;28;19926;-70
2023/03/02 00:27:53;;;;;;;;;;;16.60;36.80;;;;;;5091949;28;19927;-70
2023/03/02 00:30:18;;;;;;;;;;;16.60;36.80;;;;;;5091777;28;20383;-69
2023/03/02 00:32:44;;;;;;;;;;;16.50;36.80;;;;;;5091760;28;19924;-70
2023/03/02 00:35:10;;;;;;;;;;;16.50;36.90;;;;;;5091670;28;19920;-70
2023/03/02 00:37:35;;;;;;;;;;;16.50;36.90;;;;;;5091922;28;19942;-70
2023/03/02 00:40:03;;;;;;;;;;;16.60;37.00;;;;;;5091601;28;20505;-70
2023/03/02 00:42:29;;;;;;;;;;;16.50;36.70;;;;;;5092826;28;20287;-70
2023/03/02 00:44:58;;;;;;;;;;;16.70;36.80;;;;;;5091383;28;19920;-71
2023/03/02 00:47:23;;;;;;;;;;;16.90;36.60;;;;;;5092829;28;19927;-70
2023/03/02 00:49:49;;;;;;;;;;;17.10;36.30;;;;;;5091429;28;19920;-70
2023/03/02 00:52:15;;;;;;;;;;;17.40;36.10;;;;;;5091404;28;20007;-70
2023/03/02 00:54:40;;;;;;;;;;;17.70;35.80;;;;;;5091577;28;19947;-70
2023/03/02 00:57:09;;;;;;;;;;;18.10;35.30;;;;;;5091448;28;20375;-70
2023/03/02 00:59:36;;;;;;;;;;;18.60;34.90;;;;;;5091771;28;19924;-69
2023/03/02 01:02:01;;;;;;;;;;;19.00;34.40;;;;;;5091583;28;19924;-70
2023/03/02 01:04:30;;;;;;;;;;;19.40;33.70;;;;;;5091548;28;19985;-69
2023/03/02 01:06:56;;;;;;;;;;;19.90;33.10;;;;;;5091172;28;19920;-70
2023/03/02 01:09:22;;;;;;;;;;;20.40;32.60;;;;;;5092519;28;19920;-70
2023/03/02 01:11:47;;;;;;;;;;;20.80;32.00;;;;;;5091204;28;19920;-70
2023/03/02 01:14:16;;;;;;;;;;;21.20;31.50;;;;;;5090773;28;19924;-69
2023/03/02 01:16:41;;;;;;;;;;;21.50;30.90;;;;;;5092613;28;19927;-70
2023/03/02 01:19:07;;;;;;;;;;;21.80;30.70;;;;;;5092550;28;19920;-70
2023/03/02 01:21:32;;;;;;;;;;;22.00;30.30;;;;;;5091132;28;19923;-70
2023/03/02 01:24:01;;;;;;;;;;;22.30;30.10;;;;;;5091418;28;19959;-70
2023/03/02 01:26:26;;;;;;;;;;;22.40;30.10;;;;;;5091319;28;19920;-70
2023/03/02 01:28:54;;;;;;;;;;;22.40;30.00;;;;;;5092241;28;20019;-70
2023/03/02 01:31:20;;;;;;;;;;;22.40;29.90;;;;;;5092251;28;19927;-70
2023/03/02 01:33:46;;;;;;;;;;;22.40;29.90;;;;;;5093248;28;19978;-69
2023/03/02 01:36:11;;;;;;;;;;;22.30;29.90;;;;;;5096187;28;19963;-70
2023/03/02 01:38:37;;;;;;;;;;;22.20;29.90;;;;;;5095012;28;20010;-70
2023/03/02 01:41:02;;;;;;;;;;;22.10;29.90;;;;;;5095118;28;19920;-70
2023/03/02 01:43:28;;;;;;;;;;;22.00;30.00;;;;;;5096209;28;19926;-73
2023/03/02 01:45:58;;;;;;;;;;;21.90;30.20;;;;;;5094796;28;19927;-70
2023/03/02 01:48:26;;;;;;;;;;;21.70;30.20;;;;;;5095168;28;19919;-70
2023/03/02 01:50:53;;;;;;;;;;;21.60;30.30;;;;;;5095139;28;19927;-70
2023/03/02 01:53:19;;;;;;;;;;;21.40;30.40;;;;;;5094787;28;19960;-70
2023/03/02 01:55:45;;;;;;;;;;;21.30;30.60;;;;;;5109746;28;19924;-70
2023/03/02 01:58:12;;;;;;;;;;;21.20;30.70;;;;;;5115002;28;20479;-69
2023/03/02 02:00:38;;;;;;;;;;;21.00;30.80;;;;;;5115285;28;19924;-70
2023/03/02 02:03:08;;;;;;;;;;;20.90;31.00;;;;;;5115264;28;20251;-70
2023/03/02 02:05:36;;;;;;;;;;;20.70;31.10;;;;;;5114872;28;19920;-70
2023/03/02 02:08:01;;;;;;;;;;;20.60;31.20;;;;;;5116181;28;20290;-70
2023/03/02 02:10:27;;;;;;;;;;;20.50;31.40;;;;;;5114851;28;19927;-70
2023/03/02 02:12:53;;;;;;;;;;;20.40;31.60;;;;;;5114143;28;19959;-70
2023/03/02 02:15:18;;;;;;;;;;;20.20;31.60;;;;;;5115093;28;19927;-70
2023/03/02 02:17:47;;;;;;;;;;;20.10;31.80;;;;;;5114563;28;19963;-70
2023/03/02 02:20:33;;;;;;;;;;;20.00;32.00;;;;;;5114937;28;19985;-71
2023/03/02 02:23:18;;;;;;;;;;;19.90;32.20;;;;;;5114470;28;19942;-70
2023/03/02 02:28:34;;;;;;;;;;;19.60;32.40;;;;;;5110255;27;19930;-70
2023/03/02 02:31:05;;;;;;;;;;;19.50;32.60;;;;;;5109391;28;19969;-69
2023/03/02 02:33:31;;;;;;;;;;;19.40;32.80;;;;;;5110179;28;20287;-70
2023/03/02 02:36:00;;;;;;;;;;;19.30;32.80;;;;;;5109380;28;19971;-70
2023/03/02 02:38:26;;;;;;;;;;;19.30;33.00;;;;;;5109033;28;20010;-70
2023/03/02 02:40:54;;;;;;;;;;;19.20;33.10;;;;;;5109196;28;20451;-70
2023/03/02 02:43:20;;;;;;;;;;;19.10;33.20;;;;;;5108677;28;19920;-70
2023/03/02 02:45:47;;;;;;;;;;;19.00;33.30;;;;;;5109016;28;20373;-70
2023/03/02 02:48:14;;;;;;;;;;;18.90;33.40;;;;;;5108602;28;20368;-70
2023/03/02 02:50:41;;;;;;;;;;;18.80;33.50;;;;;;5108831;28;19920;-71
2023/03/02 02:53:11;;;;;;;;;;;18.80;33.60;;;;;;5107063;28;19927;-70
2023/03/02 02:55:37;;;;;;;;;;;18.70;33.70;;;;;;5109927;28;19927;-70
2023/03/02 02:58:08;;;;;;;;;;;18.60;33.80;;;;;;5108911;28;20275;-70
2023/03/02 03:00:35;;;;;;;;;;;18.60;33.90;;;;;;5108693;28;19928;-70
2023/03/02 03:03:04;;;;;;;;;;;18.40;33.90;;;;;;5109663;28;20366;-70
2023/03/02 03:05:29;;;;;;;;;;;18.40;34.00;;;;;;5108557;28;19920;-70
2023/03/02 03:08:15;;;;;;;;;;;18.30;34.10;;;;;;5109390;28;19946;-70
2023/03/02 03:10:41;;;;;;;;;;;18.30;34.20;;;;;;5108583;28;19920;-70
2023/03/02 03:13:08;;;;;;;;;;;18.20;34.30;;;;;;5109669;28;19943;-70
2023/03/02 03:15:34;;;;;;;;;;;18.10;34.30;;;;;;5108418;28;19924;-70
2023/03/02 03:17:59;;;;;;;;;;;18.10;34.40;;;;;;5109258;28;19942;-70
2023/03/02 03:20:25;;;;;;;;;;;18.10;34.50;;;;;;5108595;28;19958;-70
2023/03/02 03:22:54;;;;;;;;;;;17.90;34.50;;;;;;5108379;28;19942;-70
2023/03/02 03:25:21;;;;;;;;;;;17.90;34.70;;;;;;5142340;27;20050;-70
2023/03/02 03:27:47;;;;;;;;;;;17.80;35.50;;;;;;5108922;28;19924;-70
2023/03/02 03:30:13;;;;;;;;;;;17.80;34.90;;;;;;5108003;28;19920;-70
2023/03/02 03:32:39;;;;;;;;;;;17.70;34.90;;;;;;5109089;28;19981;-70
2023/03/02 03:35:07;;;;;;;;;;;17.70;35.00;;;;;;5107657;28;20437;-70
2023/03/02 03:37:33;;;;;;;;;;;17.60;35.10;;;;;;5107775;28;19927;-70
2023/03/02 03:39:59;;;;;;;;;;;17.60;35.20;;;;;;5093508;28;19920;-70
2023/03/02 03:42:25;;;;;;;;;;;17.50;35.20;;;;;;5095293;28;20015;-70
2023/03/02 03:44:50;;;;;;;;;;;17.40;35.30;;;;;;5095303;28;20294;-70
2023/03/02 03:47:16;;;;;;;;;;;17.40;35.40;;;;;;5093350;28;19924;-69
2023/03/02 03:49:41;;;;;;;;;;;17.40;35.50;;;;;;5095512;28;20423;-70
2023/03/02 03:52:07;;;;;;;;;;;17.30;35.50;;;;;;5094144;28;20382;-70
2023/03/02 03:54:32;;;;;;;;;;;17.30;35.60;;;;;;5093668;28;19920;-70
2023/03/02 03:56:58;;;;;;;;;;;17.30;35.70;;;;;;5093717;28;19920;-69
2023/03/02 03:59:24;;;;;;;;;;;17.20;35.70;;;;;;5093688;28;19924;-70
2023/03/02 04:01:58;;;;;;;;;;;17.10;35.80;;;;;;5093989;28;19920;-70
2023/03/02 04:04:26;;;;;;;;;;;17.10;35.80;;;;;;5093843;28;19924;-70
2023/03/02 04:06:52;;;;;;;;;;;17.10;35.90;;;;;;5127843;27;19931;-70
2023/03/02 04:09:18;;;;;;;;;;;17.00;35.90;;;;;;5094938;28;19931;-70
2023/03/02 04:11:47;;;;;;;;;;;17.00;36.00;;;;;;5127874;27;20294;-70
2023/03/02 04:14:13;;;;;;;;;;;17.00;36.00;;;;;;5094695;28;19920;-70
2023/03/02 04:16:39;;;;;;;;;;;16.90;36.10;;;;;;5093601;28;19927;-70
2023/03/02 04:19:08;;;;;;;;;;;16.90;36.10;;;;;;5093173;28;19920;-70
2023/03/02 04:21:43;;;;;;;;;;;16.80;36.10;;;;;;5127730;27;20023;-70
2023/03/02 04:24:09;;;;;;;;;;;16.80;36.20;;;;;;5094471;28;19923;-70
2023/03/02 04:26:36;;;;;;;;;;;16.80;36.10;;;;;;5094168;28;19931;-69
2023/03/02 04:29:02;;;;;;;;;;;16.90;36.30;;;;;;5093373;28;19927;-70
2023/03/02 04:31:27;;;;;;;;;;;17.00;36.20;;;;;;5127573;27;20011;-69
2023/03/02 04:33:53;;;;;;;;;;;17.10;36.00;;;;;;5093193;28;19959;-70
2023/03/02 04:36:18;;;;;;;;;;;17.30;35.90;;;;;;5093539;28;19916;-69
2023/03/02 04:38:45;;;;;;;;;;;17.40;35.70;;;;;;5092999;28;19989;-70
2023/03/02 04:41:13;;;;;;;;;;;17.60;35.40;;;;;;5094210;28;19920;-70
2023/03/02 04:43:38;;;;;;;;;;;17.90;35.10;;;;;;5092871;28;19969;-70
2023/03/02 04:46:04;;;;;;;;;;;18.30;34.70;;;;;;5094028;28;20010;-69
2023/03/02 04:48:30;;;;;;;;;;;18.70;34.20;;;;;;5093992;28;19971;-70
2023/03/02 04:50:55;;;;;;;;;;;19.10;33.70;;;;;;5126098;27;20062;-69
2023/03/02 04:53:21;;;;;;;;;;;19.60;33.10;;;;;;5092778;28;20367;-70
2023/03/02 04:55:47;;;;;;;;;;;20.00;32.70;;;;;;5092853;28;20359;-70
2023/03/02 04:58:13;;;;;;;;;;;20.40;32.20;;;;;;5093292;28;19920;-70
2023/03/02 05:00:39;;;;;;;;;;;20.70;31.70;;;;;;5093620;28;19920;-70
2023/03/02 05:03:04;;;;;;;;;;;21.00;31.20;;;;;;5092381;28;19924;-70
2023/03/02 05:05:30;;;;;;;;;;;21.40;31.00;;;;;;5092731;28;19920;-70
2023/03/02 05:07:57;;;;;;;;;;;21.60;30.70;;;;;;5093530;28;19934;-70
2023/03/02 05:10:23;;;;;;;;;;;21.90;30.30;;;;;;5093784;28;19920;-70
2023/03/02 05:13:04;;;;;;;;;;;22.10;30.00;;;;;;5093698;28;19927;-70
2023/03/02 05:15:33;;;;;;;;;;;22.20;29.80;;;;;;5092290;28;19920;-69
2023/03/02 05:17:59;;;;;;;;;;;22.30;29.80;;;;;;5092151;28;19927;-70
2023/03/02 05:20:26;;;;;;;;;;;22.20;29.60;;;;;;5092140;28;19920;-70
2023/03/02 05:22:54;;;;;;;;;;;22.30;29.70;;;;;;5092135;28;20011;-70
2023/03/02 05:25:20;;;;;;;;;;;22.20;29.60;;;;;;5093457;28;19919;-70
2023/03/02 05:27:45;;;;;;;;;;;22.10;29.60;;;;;;5091751;28;19924;-70
2023/03/02 05:30:11;;;;;;;;;;;22.10;29.80;;;;;;5092006;28;20077;-70
2023/03/02 05:32:37;;;;;;;;;;;22.00;29.80;;;;;;5093070;28;19920;-70
2023/03/02 05:35:03;;;;;;;;;;;21.90;29.90;;;;;;5092026;28;19923;-70
2023/03/02 05:37:28;;;;;;;;;;;21.70;30.00;;;;;;5091810;28;19920;-70
2023/03/02 05:39:54;;;;;;;;;;;21.60;30.00;;;;;;5093259;28;19920;-70
2023/03/02 05:42:22;;;;;;;;;;;21.40;30.10;;;;;;5092131;28;19926;-70
2023/03/02 05:44:48;;;;;;;;;;;21.30;30.20;;;;;;5092982;28;19920;-70
2023/03/02 05:47:14;;;;;;;;;;;21.20;30.40;;;;;;5092773;28;19934;-70
2023/03/02 05:49:39;;;;;;;;;;;21.00;30.50;;;;;;5091964;28;19967;-70
2023/03/02 05:52:05;;;;;;;;;;;20.90;30.60;;;;;;5091960;28;20364;-69
2023/03/02 05:54:31;;;;;;;;;;;20.80;30.80;;;;;;5091414;28;19942;-70
2023/03/02 05:56:56;;;;;;;;;;;20.60;30.90;;;;;;5091582;28;19920;-70
2023/03/02 05:59:22;;;;;;;;;;;20.50;31.10;;;;;;5092771;28;20018;-70
2023/03/02 06:01:48;;;;;;;;;;;20.40;31.20;;;;;;5091527;28;19920;-70
2023/03/02 06:04:14;;;;;;;;;;;20.30;31.40;;;;;;5091646;28;20022;-70
2023/03/02 06:06:39;;;;;;;;;;;20.10;31.50;;;;;;5092651;28;20340;-70
2023/03/02 06:09:05;;;;;;;;;;;20.10;31.70;;;;;;5091348;28;19927;-70
2023/03/02 06:11:30;;;;;;;;;;;19.90;31.70;;;;;;5091721;28;19920;-70
2023/03/02 06:13:56;;;;;;;;;;;19.80;32.00;;;;;;5125421;27;19920;-70
2023/03/02 06:16:21;;;;;;;;;;;19.70;32.10;;;;;;5092590;28;19972;-70
2023/03/02 06:18:47;;;;;;;;;;;19.60;32.20;;;;;;5091091;28;20007;-70
2023/03/02 06:21:13;;;;;;;;;;;19.50;32.30;;;;;;5092531;28;19920;-70
2023/03/02 06:23:38;;;;;;;;;;;19.40;32.40;;;;;;5091539;28;19920;-70
2023/03/02 06:26:08;;;;;;;;;;;19.30;32.50;;;;;;5091263;28;19931;-70
2023/03/02 06:28:34;;;;;;;;;;;19.20;32.60;;;;;;5091220;28;19967;-70
2023/03/02 06:30:59;;;;;;;;;;;19.10;32.80;;;;;;5092428;28;19920;-70
2023/03/02 06:33:25;;;;;;;;;;;19.10;33.00;;;;;;5091909;28;20390;-70
2023/03/02 06:35:50;;;;;;;;;;;19.00;33.10;;;;;;5092319;28;20397;-70
2023/03/02 06:38:16;;;;;;;;;;;18.90;33.10;;;;;;5091384;28;19927;-70
2023/03/02 06:40:42;;;;;;;;;;;18.80;33.30;;;;;;5092324;28;20376;-70
2023/03/02 06:43:07;;;;;;;;;;;18.80;33.30;;;;;;5092322;28;19920;-70
2023/03/02 06:45:33;;;;;;;;;;;18.70;33.40;;;;;;5090956;28;19927;-70
2023/03/02 06:47:59;;;;;;;;;;;18.60;33.50;;;;;;5092128;28;19965;-70
2023/03/02 06:50:25;;;;;;;;;;;18.60;33.60;;;;;;5091603;28;19930;-70
2023/03/02 06:52:50;;;;;;;;;;;18.40;33.60;;;;;;5091036;28;19920;-70
2023/03/02 06:55:16;;;;;;;;;;;18.40;33.70;;;;;;5090743;28;19949;-70
2023/03/02 06:57:41;;;;;;;;;;;18.30;33.80;;;;;;5091287;28;19924;-69
2023/03/02 07:00:10;;;;;;;;;;;18.20;33.90;;;;;;5091125;28;20269;-70
2023/03/02 07:02:35;;;;;;;;;;;18.20;34.00;;;;;;5092162;28;20433;-70
2023/03/02 07:05:01;;;;;;;;;;;18.10;34.00;;;;;;5092074;28;19959;-70
2023/03/02 07:07:26;;;;;;;;;;;18.10;34.20;;;;;;5090615;28;19975;-70
2023/03/02 07:09:52;;;;;;;;;;;18.00;34.20;;;;;;5092084;28;19924;-70
2023/03/02 07:12:17;;;;;;;;;;;17.90;34.30;;;;;;5091938;28;19993;-70
2023/03/02 07:14:43;;;;;;;;;;;17.80;34.40;;;;;;5094931;28;19943;-70
2023/03/02 07:17:09;;;;;;;;;;;17.80;34.50;;;;;;5094506;28;20338;-71
2023/03/02 07:19:34;;;;;;;;;;;17.80;34.60;;;;;;5094611;28;19920;-70
2023/03/02 07:22:00;;;;;;;;;;;17.70;34.70;;;;;;5094725;28;19942;-70
2023/03/02 07:24:26;;;;;;;;;;;17.60;34.70;;;;;;5094403;28;20633;-70
2023/03/02 07:26:52;;;;;;;;;;;17.60;34.80;;;;;;5095463;28;19938;-69
2023/03/02 07:29:17;;;;;;;;;;;17.50;34.90;;;;;;5094269;28;19924;-70
2023/03/02 07:31:43;;;;;;;;;;;17.50;35.00;;;;;;5094456;28;20038;-70
2023/03/02 07:34:11;;;;;;;;;;;17.50;35.10;;;;;;5095440;28;20345;-70
2023/03/02 07:36:37;;;;;;;;;;;17.60;35.20;;;;;;5094088;28;19931;-70
2023/03/02 07:39:03;;;;;;;;;;;17.30;35.20;;;;;;5094142;28;19920;-70
2023/03/02 07:41:28;;;;;;;;;;;17.30;35.20;;;;;;5094107;28;19920;-70
2023/03/02 07:43:54;;;;;;;;;;;17.30;35.30;;;;;;5093313;28;20011;-71
2023/03/02 07:46:20;;;;;;;;;;;17.20;35.40;;;;;;5093811;28;19942;-69
2023/03/02 07:48:45;;;;;;;;;;;17.20;35.50;;;;;;5094203;28;20061;-69
2023/03/02 07:51:11;;;;;;;;;;;17.10;35.60;;;;;;5094185;28;20336;-70
2023/03/02 07:53:37;;;;;;;;;;;17.00;35.50;;;;;;5095532;28;20370;-70
2023/03/02 07:56:07;;;;;;;;;;;17.00;35.60;;;;;;5094085;28;19970;-69
2023/03/02 07:58:32;;;;;;;;;;;17.00;35.60;;;;;;5093736;28;20006;-70
2023/03/02 08:00:58;;;;;;;;;;;17.10;35.70;;;;;;5095387;28;19920;-70
2023/03/02 08:03:23;;;;;;;;;;;17.30;35.50;;;;;;5093577;28;19924;-70
2023/03/02 08:05:49;;;;;;;;;;;17.50;35.30;;;;;;5093849;28;19921;-70
2023/03/02 08:08:14;;;;;;;;;;;17.70;35.10;;;;;;5093453;28;19924;-70
2023/03/02 08:10:40;;;;;;;;;;;18.00;34.80;;;;;;5093881;28;19920;-70
2023/03/02 08:13:05;;;;;;;;;;;18.40;34.50;;;;;;5093459;28;19927;-70
2023/03/02 08:15:31;;;;;;;;;;;18.70;34.00;;;;;;5093589;28;19928;-70
2023/03/02 08:17:56;;;;;;;;;;;19.10;33.50;;;;;;5094647;28;19920;-70
2023/03/02 08:20:22;;;;;;;;;;;19.60;33.10;;;;;;5094566;28;20291;-70
2023/03/02 08:22:48;;;;;;;;;;;20.00;32.50;;;;;;5093668;28;20363;-70
2023/03/02 08:25:13;;;;;;;;;;;20.50;32.10;;;;;;5093102;28;19931;-69
2023/03/02 08:27:39;;;;;;;;;;;20.90;31.60;;;;;;5094279;28;19924;-70
2023/03/02 08:30:09;;;;;;;;;;;21.20;31.00;;;;;;5093344;28;19920;-70
2023/03/02 08:32:35;;;;;;;;;;;21.60;30.70;;;;;;5127450;27;20367;-70
2023/03/02 08:35:01;;;;;;;;;;;21.90;30.30;;;;;;5094393;28;19920;-70
2023/03/02 08:37:27;;;;;;;;;;;22.20;30.00;;;;;;5093202;28;19924;-70
2023/03/02 08:39:52;;;;;;;;;;;22.50;29.80;;;;;;5093253;28;19963;-70
2023/03/02 08:42:18;;;;;;;;;;;22.70;29.70;;;;;;5094129;28;19962;-70
2023/03/02 08:44:44;;;;;;;;;;;22.80;29.50;;;;;;5111063;27;19963;-69
2023/03/02 08:47:09;;;;;;;;;;;22.90;29.30;;;;;;5092207;28;19928;-70
2023/03/02 08:49:36;;;;;;;;;;;22.90;29.30;;;;;;5093745;28;19924;-70
2023/03/02 08:52:02;;;;;;;;;;;23.00;29.30;;;;;;5091342;28;20398;-70
2023/03/02 08:54:27;;;;;;;;;;;22.80;29.30;;;;;;5092192;28;19921;-70
2023/03/02 08:56:53;;;;;;;;;;;22.70;29.30;;;;;;5093650;28;19949;-69
2023/03/02 08:59:20;;;;;;;;;;;22.60;29.40;;;;;;5093791;28;19943;-70
2023/03/02 09:01:46;;;;;;;;;;;22.50;29.40;;;;;;5092342;28;19927;-70
2023/03/02 09:04:12;;;;;;;;;;;22.40;29.40;;;;;;5092272;28;19924;-70
2023/03/02 09:06:39;;;;;;;;;;;22.20;29.60;;;;;;5092132;28;19924;-70
2023/03/02 09:09:06;;;;;;;;;;;22.10;29.70;;;;;;5084502;28;20466;-71
2023/03/02 09:11:32;;;;;;;;;;;22.00;29.90;;;;;;5092242;28;19920;-70
2023/03/02 09:13:58;;;;;;;;;;;21.80;29.90;;;;;;5093490;28;20278;-70
2023/03/02 09:16:24;;;;;;;;;;;21.70;30.00;;;;;;5091915;28;19924;-70
2023/03/02 09:18:50;;;;;;;;;;;21.50;30.20;;;;;;5091930;28;20004;-71
2023/03/02 09:21:16;;;;;;;;;;;21.30;30.30;;;;;;5092030;28;19975;-71
2023/03/02 09:23:41;;;;;;;;;;;21.20;30.50;;;;;;5093100;28;20438;-70
2023/03/02 09:26:07;;;;;;;;;;;21.00;30.50;;;;;;5093237;28;19920;-70
2023/03/02 09:28:37;;;;;;;;;;;20.90;30.80;;;;;;5093175;28;19931;-70
2023/03/02 09:31:03;;;;;;;;;;;20.80;31.00;;;;;;5092163;28;19920;-71
2023/03/02 09:33:29;;;;;;;;;;;20.70;31.10;;;;;;5093265;28;19924;-71
2023/03/02 09:35:55;;;;;;;;;;;20.60;31.30;;;;;;5092731;28;19920;-70
2023/03/02 09:38:21;;;;;;;;;;;20.50;31.40;;;;;;5091823;28;19924;-71
2023/03/02 09:40:55;;;;;;;;;;;20.30;31.50;;;;;;5092346;28;19920;-72
2023/03/02 09:49:02;;;;;;;;;;;20.00;31.90;;;;;;5130680;27;19912;-69
2023/03/02 09:51:40;;;;;;;;;;;19.90;32.00;;;;;;5129498;28;19932;-70
2023/03/02 09:56:53;;;;;;;;;;;19.70;32.40;;;;;;5110335;27;19912;-69
2023/03/02 09:59:21;;;;;;;;;;;19.60;32.50;;;;;;5108843;28;19919;-69
2023/03/02 10:01:49;;;;;;;;;;;19.50;32.60;;;;;;5109233;28;19920;-69
2023/03/02 10:07:01;;;;;;;;;;;19.30;32.80;;;;;;5089790;28;19918;-69
2023/03/02 10:09:27;;;;;;;;;;;19.20;32.90;;;;;;5088569;28;19960;-69
2023/03/02 10:12:01;;;;;;;;;;;19.10;33.00;;;;;;5088458;28;19975;-69
2023/03/02 10:14:34;;;;;;;;;;;19.00;33.10;;;;;;5088531;28;20269;-69
2023/03/02 10:17:19;;;;;;;;;;;19.00;33.20;;;;;;5088864;28;19920;-69
2023/03/02 10:19:51;;;;;;;;;;;18.90;33.30;;;;;;5088189;28;20010;-69
2023/03/02 10:22:25;;;;;;;;;;;18.80;33.40;;;;;;5088538;28;20374;-70
2023/03/02 10:27:35;;;;;;;;;;;18.70;33.60;;;;;;5129103;27;1873739;-69
2023/03/02 10:30:06;;;;;;;;;;;18.60;33.70;;;;;;5174500;27;19918;-69
2023/03/02 10:32:36;;;;;;;;;;;18.60;33.80;;;;;;5174631;27;20437;-70
2023/03/02 10:35:09;;;;;;;;;;;18.50;33.90;;;;;;5174606;27;20347;-69
2023/03/02 10:37:35;;;;;;;;;;;18.50;34.00;;;;;;5174193;27;19929;-70
2023/03/02 10:40:01;;;;;;;;;;;18.40;34.10;;;;;;5174645;27;19918;-70
2023/03/02 10:42:29;;;;;;;;;;;18.30;34.20;;;;;;5174202;27;19926;-70
2023/03/02 10:44:58;;;;;;;;;;;18.20;34.20;;;;;;5174507;27;20018;-69
2023/03/02 10:47:25;;;;;;;;;;;18.20;34.30;;;;;;5173957;27;20404;-69
2023/03/02 10:49:51;;;;;;;;;;;18.20;34.40;;;;;;5182516;27;20292;-69
2023/03/02 10:52:18;;;;;;;;;;;18.10;34.50;;;;;;5153026;27;20424;-70
2023/03/02 10:54:44;;;;;;;;;;;18.10;34.60;;;;;;5171658;27;19919;-69
2023/03/02 10:57:29;;;;;;;;;;;18.00;34.70;;;;;;5153071;27;19918;-69
2023/03/02 10:59:58;;;;;;;;;;;17.90;34.80;;;;;;5171452;27;19962;-69
2023/03/02 11:02:26;;;;;;;;;;;17.90;34.90;;;;;;5153023;27;19919;-69
2023/03/02 11:04:53;;;;;;;;;;;17.80;34.90;;;;;;5153162;27;20006;-69
2023/03/02 11:07:20;;;;;;;;;;;17.70;35.00;;;;;;5152740;27;20013;-70
2023/03/02 11:10:03;;;;;;;;;;;17.80;35.20;;;;;;5171437;27;19950;-69
2023/03/02 11:12:29;;;;;;;;;;;17.70;35.20;;;;;;5153052;27;20385;-69
2023/03/02 11:15:15;;;;;;;;;;;17.60;35.20;;;;;;5153042;27;19923;-70
2023/03/02 11:17:42;;;;;;;;;;;17.70;35.40;;;;;;5171157;27;20009;-70
2023/03/02 11:20:14;;;;;;;;;;;17.60;35.50;;;;;;5171247;27;19975;-70
2023/03/02 11:22:50;;;;;;;;;;;17.50;35.50;;;;;;5152958;27;19975;-70
2023/03/02 11:25:22;;;;;;;;;;;17.50;35.60;;;;;;5152236;27;19919;-70
2023/03/02 11:27:51;;;;;;;;;;;17.40;35.60;;;;;;5152269;27;20382;-70
2023/03/02 11:30:19;;;;;;;;;;;17.40;35.70;;;;;;5152794;27;19966;-69
2023/03/02 11:35:33;;;;;;;;;;;17.30;35.90;;;;;;5089878;28;19920;-69
2023/03/02 11:38:03;;;;;;;;;;;17.30;35.90;;;;;;5088514;28;19920;-69
2023/03/02 11:40:30;;;;;;;;;;;17.20;36.00;;;;;;5072056;28;19925;-70
2023/03/02 11:42:57;;;;;;;;;;;17.20;36.10;;;;;;5088620;28;19920;-70
2023/03/02 11:45:26;;;;;;;;;;;17.10;36.10;;;;;;5088621;28;19924;-70
2023/03/02 11:47:55;;;;;;;;;;;17.10;36.20;;;;;;5090008;28;19928;-69
2023/03/02 11:50:21;;;;;;;;;;;17.10;36.30;;;;;;5088664;28;19920;-69
2023/03/02 11:52:49;;;;;;;;;;;17.00;36.40;;;;;;5088404;28;20276;-69
2023/03/02 11:55:17;;;;;;;;;;;17.00;36.40;;;;;;5088066;28;19990;-69
2023/03/02 11:57:48;;;;;;;;;;;17.00;36.50;;;;;;5088241;28;20387;-69
2023/03/02 12:02:58;;;;;;;;;;;16.90;36.60;;;;;;5089857;28;20412;-70
2023/03/02 12:05:26;;;;;;;;;;;17.00;36.70;;;;;;5088780;28;19920;-69
2023/03/02 12:07:59;;;;;;;;;;;16.80;36.70;;;;;;5089741;28;19920;-69
2023/03/02 12:10:30;;;;;;;;;;;16.80;36.50;;;;;;5088782;28;20227;-69
2023/03/02 12:13:01;;;;;;;;;;;17.00;36.60;;;;;;5089874;28;20323;-70
2023/03/02 12:15:28;;;;;;;;;;;17.20;36.60;;;;;;5089649;28;20011;-70
2023/03/02 12:17:54;;;;;;;;;;;17.40;36.40;;;;;;5088265;28;19920;-70
2023/03/02 12:23:08;;;;;;;;;;;17.80;36.00;;;;;;5193239;27;19914;-70
2023/03/02 12:25:37;;;;;;;;;;;18.20;35.60;;;;;;5174486;27;19933;-69
2023/03/02 12:28:03;;;;;;;;;;;18.60;35.20;;;;;;5174759;27;20337;-69
2023/03/02 12:30:30;;;;;;;;;;;19.10;34.60;;;;;;5174596;27;19939;-69
2023/03/02 12:32:58;;;;;;;;;;;19.50;34.10;;;;;;5174556;27;19925;-69
2023/03/02 12:35:25;;;;;;;;;;;20.00;33.40;;;;;;5174291;27;19923;-70
2023/03/02 12:37:52;;;;;;;;;;;20.50;33.00;;;;;;5174138;27;20436;-70
2023/03/02 12:46:05;;;;;;;;;;;21.80;31.40;;;;;;5140989;27;1879348;-69
2023/03/02 12:48:50;;;;;;;;;;;22.00;31.10;;;;;;5174075;27;20301;-69
2023/03/02 12:51:20;;;;;;;;;;;22.20;30.80;;;;;;5163436;27;19926;-70
2023/03/02 12:53:48;;;;;;;;;;;22.30;30.70;;;;;;5153546;27;19945;-69
2023/03/02 12:56:21;;;;;;;;;;;22.30;30.50;;;;;;5153318;27;19919;-69
2023/03/02 12:58:49;;;;;;;;;;;22.30;30.60;;;;;;5172034;27;19919;-69
2023/03/02 13:01:19;;;;;;;;;;;22.20;30.50;;;;;;5172315;27;19919;-69
2023/03/02 13:03:46;;;;;;;;;;;22.10;30.50;;;;;;5153544;27;19948;-69
2023/03/02 13:06:15;;;;;;;;;;;22.10;30.70;;;;;;5153637;27;19925;-70
2023/03/02 13:08:43;;;;;;;;;;;22.00;30.80;;;;;;5153640;27;19959;-70
2023/03/02 13:11:08;;;;;;;;;;;21.90;30.80;;;;;;5171926;27;19919;-70
2023/03/02 13:13:35;;;;;;;;;;;21.80;30.80;;;;;;5153368;27;20017;-69
2023/03/02 13:16:04;;;;;;;;;;;21.70;31.00;;;;;;5152976;27;19926;-69
2023/03/02 13:18:32;;;;;;;;;;;21.50;31.10;;;;;;5153274;27;20042;-70
2023/03/02 13:21:00;;;;;;;;;;;21.40;31.30;;;;;;5153250;27;19930;-70
2023/03/02 13:23:26;;;;;;;;;;;21.20;31.40;;;;;;5152822;27;20370;-70
2023/03/02 13:25:54;;;;;;;;;;;21.10;31.60;;;;;;5153187;27;19919;-69
2023/03/02 13:28:22;;;;;;;;;;;20.90;31.80;;;;;;5152652;27;19966;-69
2023/03/02 13:30:54;;;;;;;;;;;20.80;31.90;;;;;;5153105;27;19919;-70
2023/03/02 13:33:21;;;;;;;;;;;20.60;32.10;;;;;;5152580;27;20464;-70
2023/03/02 13:35:47;;;;;;;;;;;20.50;32.30;;;;;;5171569;27;19919;-70
2023/03/02 13:38:14;;;;;;;;;;;20.40;32.50;;;;;;5171401;27;20001;-69
2023/03/02 13:40:41;;;;;;;;;;;20.20;32.60;;;;;;5152853;27;19971;-70
2023/03/02 13:43:27;;;;;;;;;;;20.10;32.70;;;;;;5151968;27;19991;-69
2023/03/02 13:45:54;;;;;;;;;;;20.00;32.90;;;;;;5151820;27;19976;-70
2023/03/02 13:48:20;;;;;;;;;;;19.90;33.00;;;;;;5152688;27;19919;-70
2023/03/02 13:51:05;;;;;;;;;;;19.80;34.00;;;;;;5171212;27;20390;-70
2023/03/02 13:53:36;;;;;;;;;;;19.70;33.30;;;;;;5175037;27;19918;-70
2023/03/02 13:56:02;;;;;;;;;;;19.60;33.90;;;;;;5179263;27;20398;-70
2023/03/02 13:58:30;;;;;;;;;;;19.50;34.20;;;;;;5137485;27;19919;-70
2023/03/02 14:00:56;;;;;;;;;;;19.40;34.30;;;;;;5153902;27;19919;-70
2023/03/02 14:06:00;;;;;;;;;;;19.20;34.50;;;;;;5119067;27;2059284;-70
2023/03/02 14:08:25;;;;;;;;;;;19.10;34.50;;;;;;5172760;27;19918;-70
2023/03/02 14:10:52;;;;;;;;;;;19.10;34.60;;;;;;5172990;27;19919;-70
2023/03/02 14:13:24;;;;;;;;;;;19.00;34.70;;;;;;5155775;27;19919;-71
2023/03/02 14:15:51;;;;;;;;;;;18.90;34.70;;;;;;5174601;27;19919;-70
2023/03/02 14:18:36;;;;;;;;;;;18.80;34.80;;;;;;5174539;27;19925;-71
2023/03/02 14:21:04;;;;;;;;;;;18.80;35.00;;;;;;5174470;27;19919;-71
2023/03/02 14:23:29;;;;;;;;;;;18.70;35.10;;;;;;5192944;27;19926;-70
2023/03/02 14:25:56;;;;;;;;;;;18.60;35.10;;;;;;5174487;27;20009;-70
2023/03/02 14:28:30;;;;;;;;;;;18.60;35.20;;;;;;5174107;27;20369;-70
2023/03/02 14:30:56;;;;;;;;;;;18.50;35.30;;;;;;5173981;27;19918;-70
2023/03/02 14:33:22;;;;;;;;;;;18.40;35.40;;;;;;5193227;27;19919;-71
2023/03/02 14:35:49;;;;;;;;;;;18.40;35.50;;;;;;5173848;27;20036;-71
2023/03/02 14:38:15;;;;;;;;;;;18.30;35.60;;;;;;5192732;27;19926;-71
2023/03/02 14:40:40;;;;;;;;;;;18.20;35.70;;;;;;5173834;27;19918;-71
2023/03/02 14:43:07;;;;;;;;;;;18.10;35.80;;;;;;5192586;27;19918;-71
2023/03/02 14:45:33;;;;;;;;;;;18.10;36.00;;;;;;5156243;27;20173;-71
2023/03/02 14:47:59;;;;;;;;;;;18.00;36.00;;;;;;5188023;27;20212;-71
2023/03/02 14:50:24;;;;;;;;;;;17.90;36.20;;;;;;5171341;27;20257;-71